sensor_id;sensor_type;location;lat;lon;timestamp;temperature;humidity
2893;DHT22;1456;51.840;12.184;2023-04-24T00:01:20;13.50;99.90
2893;DHT22;1456;51.840;12.184;2023-04-24T00:03:46;13.50;99.90
2893;DHT22;1456;51.840;12.184;2023-04-24T00:06:12;13.50;99.90
2893;DHT22;1456;51.840;12.184;2023-04-24T00:08:40;13.40;99.90
2893;DHT22;1456;51.840;12.184;2023-04-24T00:11:06;13.40;99.90
2893;DHT22;1456;51.840;12.184;2023-04-24T00:13:32;13.40;99.90
2893;DHT22;1456;51.840;12.184;2023-04-24T00:15:58;13.40;99.90
2893;DHT22;1456;51.840;12.184;2023-04-24T00:18:23;13.40;99.90
2893;DHT22;1456;51.840;12.184;2023-04-24T00:20:51;13.40;99.90
2893;DHT22;1456;51.840;12.184;2023-04-24T00:23:20;13.50;99.90
2893;DHT22;1456;51.840;12.184;2023-04-24T00:25:46;13.60;99.90
2893;DHT22;1456;51.840;12.184;2023-04-24T00:28:13;13.70;99.90
2893;DHT22;1456;51.840;12.184;2023-04-24T00:30:39;13.70;99.90
2893;DHT22;1456;51.840;12.184;2023-04-24T00:33:05;13.50;99.90
2893;DHT22;1456;51.840;12.184;2023-04-24T00:35:31;13.40;99.90
2893;DHT22;1456;51.840;12.184;2023-04-24T00:37:56;13.40;99.90
2893;DHT22;1456;51.840;12.184;2023-04-24T00:40:23;13.40;99.90
2893;DHT22;1456;51.840;12.184;2023-04-24T00:42:49;13.40;99.90
2893;DHT22;1456;51.840;12.184;2023-04-24T00:45:16;13.40;99.90
2893;DHT22;1456;51.840;12.184;2023-04-24T00:47:44;13.40;99.90
2893;DHT22;1456;51.840;12.184;2023-04-24T00:50:10;13.50;99.90
2893;DHT22;1456;51.840;12.184;2023-04-24T00:52:38;13.40;99.90
2893;DHT22;1456;51.840;12.184;2023-04-24T00:55:06;13.30;99.90
2893;DHT22;1456;51.840;12.184;2023-04-24T00:57:32;13.20;99.90
2893;DHT22;1456;51.840;12.184;2023-04-24T00:59:59;13.10;99.90
2893;DHT22;1456;51.840;12.184;2023-04-24T01:02:25;13.10;99.90
2893;DHT22;1456;51.840;12.184;2023-04-24T01:04:52;13.00;99.90
2893;DHT22;1456;51.840;12.184;2023-04-24T01:07:20;12.90;99.90
2893;DHT22;1456;51.840;12.184;2023-04-24T01:09:47;12.80;99.90
2893;DHT22;1456;51.840;12.184;2023-04-24T01:12:15;12.80;99.90
2893;DHT22;1456;51.840;12.184;2023-04-24T01:14:41;12.70;99.90
2893;DHT22;1456;51.840;12.184;2023-04-24T01:17:06;12.60;99.90
2893;DHT22;1456;51.840;12.184;2023-04-24T01:19:32;12.60;99.90
2893;DHT22;1456;51.840;12.184;2023-04-24T01:22:02;12.60;99.90
2893;DHT22;1456;51.840;12.184;2023-04-24T01:24:28;12.50;99.90
2893;DHT22;1456;51.840;12.184;2023-04-24T01:26:54;12.40;99.90
2893;DHT22;1456;51.840;12.184;2023-04-24T01:29:21;12.30;99.90
2893;DHT22;1456;51.840;12.184;2023-04-24T01:31:47;12.30;99.90
2893;DHT22;1456;51.840;12.184;2023-04-24T01:34:13;12.20;99.90
2893;DHT22;1456;51.840;12.184;2023-04-24T01:36:43;12.10;99.90
2893;DHT22;1456;51.840;12.184;2023-04-24T01:39:12;12.00;99.90
2893;DHT22;1456;51.840;12.184;2023-04-24T01:41:38;12.00;99.90
2893;DHT22;1456;51.840;12.184;2023-04-24T01:44:09;11.90;99.90
2893;DHT22;1456;51.840;12.184;2023-04-24T01:46:36;11.90;99.90
2893;DHT22;1456;51.840;12.184;2023-04-24T01:49:02;12.00;99.90
2893;DHT22;1456;51.840;12.184;2023-04-24T01:51:28;11.90;99.90
2893;DHT22;1456;51.840;12.184;2023-04-24T01:53:53;11.90;99.90
2893;DHT22;1456;51.840;12.184;2023-04-24T01:56:22;11.90;99.90
2893;DHT22;1456;51.840;12.184;2023-04-24T01:58:51;11.90;99.90
2893;DHT22;1456;51.840;12.184;2023-04-24T02:01:19;11.80;99.90
2893;DHT22;1456;51.840;12.184;2023-04-24T02:03:48;11.80;99.90
2893;DHT22;1456;51.840;12.184;2023-04-24T02:06:14;11.70;99.90
2893;DHT22;1456;51.840;12.184;2023-04-24T02:08:42;11.70;99.90
2893;DHT22;1456;51.840;12.184;2023-04-24T02:11:10;11.70;99.90
2893;DHT22;1456;51.840;12.184;2023-04-24T02:13:38;11.60;99.90
2893;DHT22;1456;51.840;12.184;2023-04-24T02:16:04;11.50;99.90
2893;DHT22;1456;51.840;12.184;2023-04-24T02:18:29;11.40;99.90
2893;DHT22;1456;51.840;12.184;2023-04-24T02:20:55;11.40;99.90
2893;DHT22;1456;51.840;12.184;2023-04-24T02:23:21;11.30;99.90
2893;DHT22;1456;51.840;12.184;2023-04-24T02:25:48;11.20;99.90
2893;DHT22;1456;51.840;12.184;2023-04-24T02:28:16;11.10;99.90
2893;DHT22;1456;51.840;12.184;2023-04-24T02:30:46;11.10;99.90
2893;DHT22;1456;51.840;12.184;2023-04-24T02:33:15;11.00;99.90
2893;DHT22;1456;51.840;12.184;2023-04-24T02:35:42;10.90;99.90
2893;DHT22;1456;51.840;12.184;2023-04-24T02:38:07;10.80;99.90
2893;DHT22;1456;51.840;12.184;2023-04-24T02:40:33;10.80;99.90
2893;DHT22;1456;51.840;12.184;2023-04-24T02:43:00;10.80;99.90
2893;DHT22;1456;51.840;12.184;2023-04-24T02:45:26;10.70;99.90
2893;DHT22;1456;51.840;12.184;2023-04-24T02:47:52;10.70;99.90
2893;DHT22;1456;51.840;12.184;2023-04-24T02:50:21;10.70;99.90
2893;DHT22;1456;51.840;12.184;2023-04-24T02:52:48;10.60;99.90
2893;DHT22;1456;51.840;12.184;2023-04-24T02:55:15;10.60;99.90
2893;DHT22;1456;51.840;12.184;2023-04-24T02:57:47;10.50;99.90
2893;DHT22;1456;51.840;12.184;2023-04-24T03:00:13;10.50;99.90
2893;DHT22;1456;51.840;12.184;2023-04-24T03:02:39;10.50;99.90
2893;DHT22;1456;51.840;12.184;2023-04-24T03:05:05;10.50;99.90
2893;DHT22;1456;51.840;12.184;2023-04-24T03:07:34;10.50;99.90
2893;DHT22;1456;51.840;12.184;2023-04-24T03:10:00;10.50;99.90
2893;DHT22;1456;51.840;12.184;2023-04-24T03:12:26;10.60;99.90
2893;DHT22;1456;51.840;12.184;2023-04-24T03:14:53;10.60;99.90
2893;DHT22;1456;51.840;12.184;2023-04-24T03:17:19;10.60;99.90
2893;DHT22;1456;51.840;12.184;2023-04-24T03:19:47;10.60;99.90
2893;DHT22;1456;51.840;12.184;2023-04-24T03:22:14;10.50;99.90
2893;DHT22;1456;51.840;12.184;2023-04-24T03:24:39;10.50;99.90
2893;DHT22;1456;51.840;12.184;2023-04-24T03:27:06;10.50;99.90
2893;DHT22;1456;51.840;12.184;2023-04-24T03:29:32;10.50;99.90
2893;DHT22;1456;51.840;12.184;2023-04-24T03:32:00;10.50;99.90
2893;DHT22;1456;51.840;12.184;2023-04-24T03:34:40;10.50;99.90
2893;DHT22;1456;51.840;12.184;2023-04-24T03:37:11;10.50;99.90
2893;DHT22;1456;51.840;12.184;2023-04-24T03:39:40;10.50;99.90
2893;DHT22;1456;51.840;12.184;2023-04-24T03:42:09;10.50;99.90
2893;DHT22;1456;51.840;12.184;2023-04-24T03:44:36;10.40;99.90
2893;DHT22;1456;51.840;12.184;2023-04-24T03:47:02;10.40;99.90
2893;DHT22;1456;51.840;12.184;2023-04-24T03:49:28;10.40;99.90
2893;DHT22;1456;51.840;12.184;2023-04-24T03:51:58;10.30;99.90
2893;DHT22;1456;51.840;12.184;2023-04-24T03:54:25;10.30;99.90
2893;DHT22;1456;51.840;12.184;2023-04-24T03:56:50;10.20;99.90
2893;DHT22;1456;51.840;12.184;2023-04-24T03:59:16;10.10;99.90
2893;DHT22;1456;51.840;12.184;2023-04-24T04:01:43;10.10;99.90
2893;DHT22;1456;51.840;12.184;2023-04-24T04:04:08;10.00;99.90
2893;DHT22;1456;51.840;12.184;2023-04-24T04:06:35;10.00;99.90
2893;DHT22;1456;51.840;12.184;2023-04-24T04:09:04;9.90;99.90
2893;DHT22;1456;51.840;12.184;2023-04-24T04:11:31;10.00;99.90
2893;DHT22;1456;51.840;12.184;2023-04-24T04:13:57;10.00;99.90
2893;DHT22;1456;51.840;12.184;2023-04-24T04:16:24;10.00;99.90
2893;DHT22;1456;51.840;12.184;2023-04-24T04:18:51;10.00;99.90
2893;DHT22;1456;51.840;12.184;2023-04-24T04:21:19;10.00;99.90
2893;DHT22;1456;51.840;12.184;2023-04-24T04:23:44;10.00;99.90
2893;DHT22;1456;51.840;12.184;2023-04-24T04:26:11;10.00;99.90
2893;DHT22;1456;51.840;12.184;2023-04-24T04:28:41;10.10;99.90
2893;DHT22;1456;51.840;12.184;2023-04-24T04:31:07;10.00;99.90
2893;DHT22;1456;51.840;12.184;2023-04-24T04:33:34;10.00;99.90
2893;DHT22;1456;51.840;12.184;2023-04-24T04:36:07;10.10;99.90
2893;DHT22;1456;51.840;12.184;2023-04-24T04:38:34;10.10;99.90
2893;DHT22;1456;51.840;12.184;2023-04-24T04:41:01;10.20;99.90
2893;DHT22;1456;51.840;12.184;2023-04-24T04:43:27;10.20;99.90
2893;DHT22;1456;51.840;12.184;2023-04-24T04:45:54;10.30;99.90
2893;DHT22;1456;51.840;12.184;2023-04-24T04:48:21;10.40;99.90
2893;DHT22;1456;51.840;12.184;2023-04-24T04:50:49;10.40;99.90
2893;DHT22;1456;51.840;12.184;2023-04-24T04:53:15;10.40;99.90
2893;DHT22;1456;51.840;12.184;2023-04-24T04:55:41;10.40;99.90
2893;DHT22;1456;51.840;12.184;2023-04-24T04:58:06;10.40;99.90
2893;DHT22;1456;51.840;12.184;2023-04-24T05:00:32;10.50;99.90
2893;DHT22;1456;51.840;12.184;2023-04-24T05:03:01;10.50;99.90
2893;DHT22;1456;51.840;12.184;2023-04-24T05:05:27;10.60;99.90
2893;DHT22;1456;51.840;12.184;2023-04-24T05:07:53;10.70;99.90
2893;DHT22;1456;51.840;12.184;2023-04-24T05:10:20;10.70;99.90
2893;DHT22;1456;51.840;12.184;2023-04-24T05:12:47;10.80;99.90
2893;DHT22;1456;51.840;12.184;2023-04-24T05:15:12;10.90;99.90
2893;DHT22;1456;51.840;12.184;2023-04-24T05:17:40;11.10;99.90
2893;DHT22;1456;51.840;12.184;2023-04-24T05:20:06;11.20;99.90
2893;DHT22;1456;51.840;12.184;2023-04-24T05:22:32;11.30;99.90
2893;DHT22;1456;51.840;12.184;2023-04-24T05:24:58;11.50;99.90
2893;DHT22;1456;51.840;12.184;2023-04-24T05:27:24;11.70;99.90
2893;DHT22;1456;51.840;12.184;2023-04-24T05:30:02;12.00;99.90
2893;DHT22;1456;51.840;12.184;2023-04-24T05:32:28;12.10;99.90
2893;DHT22;1456;51.840;12.184;2023-04-24T05:34:54;12.30;99.90
2893;DHT22;1456;51.840;12.184;2023-04-24T05:37:21;12.50;99.90
2893;DHT22;1456;51.840;12.184;2023-04-24T05:39:46;12.60;99.90
2893;DHT22;1456;51.840;12.184;2023-04-24T05:42:12;12.80;99.90
2893;DHT22;1456;51.840;12.184;2023-04-24T05:44:39;13.00;99.90
2893;DHT22;1456;51.840;12.184;2023-04-24T05:47:05;13.30;99.90
2893;DHT22;1456;51.840;12.184;2023-04-24T05:49:31;13.50;99.90
2893;DHT22;1456;51.840;12.184;2023-04-24T05:51:57;13.50;99.90
2893;DHT22;1456;51.840;12.184;2023-04-24T05:54:23;13.40;99.90
2893;DHT22;1456;51.840;12.184;2023-04-24T05:56:51;13.40;99.90
2893;DHT22;1456;51.840;12.184;2023-04-24T05:59:19;13.40;99.90
2893;DHT22;1456;51.840;12.184;2023-04-24T06:01:45;13.40;99.90
2893;DHT22;1456;51.840;12.184;2023-04-24T06:04:12;13.40;99.90
2893;DHT22;1456;51.840;12.184;2023-04-24T06:06:40;13.40;99.90
2893;DHT22;1456;51.840;12.184;2023-04-24T06:09:05;13.50;99.90
2893;DHT22;1456;51.840;12.184;2023-04-24T06:11:32;13.60;99.90
2893;DHT22;1456;51.840;12.184;2023-04-24T06:13:58;13.60;99.90
2893;DHT22;1456;51.840;12.184;2023-04-24T06:16:24;13.60;99.90
2893;DHT22;1456;51.840;12.184;2023-04-24T06:18:50;13.70;99.90
2893;DHT22;1456;51.840;12.184;2023-04-24T06:21:18;13.90;99.90
2893;DHT22;1456;51.840;12.184;2023-04-24T06:23:46;13.80;99.90
2893;DHT22;1456;51.840;12.184;2023-04-24T06:26:12;14.00;99.90
2893;DHT22;1456;51.840;12.184;2023-04-24T06:28:39;14.20;99.90
2893;DHT22;1456;51.840;12.184;2023-04-24T06:31:05;14.60;99.90
2893;DHT22;1456;51.840;12.184;2023-04-24T06:33:30;14.60;99.90
2893;DHT22;1456;51.840;12.184;2023-04-24T06:35:59;14.50;99.90
2893;DHT22;1456;51.840;12.184;2023-04-24T06:38:26;14.50;99.90
2893;DHT22;1456;51.840;12.184;2023-04-24T06:40:55;14.50;99.90
2893;DHT22;1456;51.840;12.184;2023-04-24T06:43:21;14.60;99.90
2893;DHT22;1456;51.840;12.184;2023-04-24T06:45:47;14.70;99.90
2893;DHT22;1456;51.840;12.184;2023-04-24T06:48:13;14.60;99.90
2893;DHT22;1456;51.840;12.184;2023-04-24T06:50:38;14.70;99.90
2893;DHT22;1456;51.840;12.184;2023-04-24T06:53:04;14.60;99.90
2893;DHT22;1456;51.840;12.184;2023-04-24T06:55:31;14.70;99.90
2893;DHT22;1456;51.840;12.184;2023-04-24T06:57:58;14.40;99.90
2893;DHT22;1456;51.840;12.184;2023-04-24T07:00:24;14.50;99.90
2893;DHT22;1456;51.840;12.184;2023-04-24T07:02:56;14.60;99.90
2893;DHT22;1456;51.840;12.184;2023-04-24T07:05:22;14.60;99.90
2893;DHT22;1456;51.840;12.184;2023-04-24T07:07:49;14.40;99.90
2893;DHT22;1456;51.840;12.184;2023-04-24T07:10:17;14.40;99.90
2893;DHT22;1456;51.840;12.184;2023-04-24T07:12:43;14.30;99.90
2893;DHT22;1456;51.840;12.184;2023-04-24T07:15:10;14.10;99.90
2893;DHT22;1456;51.840;12.184;2023-04-24T07:17:39;14.10;99.90
2893;DHT22;1456;51.840;12.184;2023-04-24T07:20:09;14.30;99.90
2893;DHT22;1456;51.840;12.184;2023-04-24T07:22:39;14.40;99.90
2893;DHT22;1456;51.840;12.184;2023-04-24T07:25:06;14.60;99.90
2893;DHT22;1456;51.840;12.184;2023-04-24T07:27:33;14.60;99.90
2893;DHT22;1456;51.840;12.184;2023-04-24T07:30:02;14.70;99.90
2893;DHT22;1456;51.840;12.184;2023-04-24T07:32:28;14.80;99.90
2893;DHT22;1456;51.840;12.184;2023-04-24T07:34:53;14.60;99.90
2893;DHT22;1456;51.840;12.184;2023-04-24T07:37:20;14.50;99.90
2893;DHT22;1456;51.840;12.184;2023-04-24T07:39:46;14.50;99.90
2893;DHT22;1456;51.840;12.184;2023-04-24T07:42:14;14.50;99.90
2893;DHT22;1456;51.840;12.184;2023-04-24T07:44:40;14.40;99.90
2893;DHT22;1456;51.840;12.184;2023-04-24T07:47:05;14.50;99.90
2893;DHT22;1456;51.840;12.184;2023-04-24T07:49:32;14.40;99.90
2893;DHT22;1456;51.840;12.184;2023-04-24T07:52:08;14.50;99.90
2893;DHT22;1456;51.840;12.184;2023-04-24T07:54:34;14.60;99.90
2893;DHT22;1456;51.840;12.184;2023-04-24T07:56:59;15.00;99.90
2893;DHT22;1456;51.840;12.184;2023-04-24T07:59:28;15.50;99.90
2893;DHT22;1456;51.840;12.184;2023-04-24T08:01:53;15.80;99.90
2893;DHT22;1456;51.840;12.184;2023-04-24T08:04:22;16.20;99.90
2893;DHT22;1456;51.840;12.184;2023-04-24T08:06:49;16.40;99.90
2893;DHT22;1456;51.840;12.184;2023-04-24T08:09:15;16.60;99.90
2893;DHT22;1456;51.840;12.184;2023-04-24T08:11:43;16.90;99.90
2893;DHT22;1456;51.840;12.184;2023-04-24T08:14:16;16.80;99.90
2893;DHT22;1456;51.840;12.184;2023-04-24T08:16:42;16.70;99.90
2893;DHT22;1456;51.840;12.184;2023-04-24T08:19:09;16.80;99.90
2893;DHT22;1456;51.840;12.184;2023-04-24T08:21:36;17.30;99.90
2893;DHT22;1456;51.840;12.184;2023-04-24T08:24:02;17.60;99.90
2893;DHT22;1456;51.840;12.184;2023-04-24T08:26:30;17.30;99.90
2893;DHT22;1456;51.840;12.184;2023-04-24T08:28:59;17.50;99.90
2893;DHT22;1456;51.840;12.184;2023-04-24T08:31:24;17.80;99.90
2893;DHT22;1456;51.840;12.184;2023-04-24T08:33:52;17.90;99.40
2893;DHT22;1456;51.840;12.184;2023-04-24T08:36:18;17.90;99.00
2893;DHT22;1456;51.840;12.184;2023-04-24T08:38:44;17.60;99.80
2893;DHT22;1456;51.840;12.184;2023-04-24T08:41:14;17.10;98.20
2893;DHT22;1456;51.840;12.184;2023-04-24T08:43:41;16.80;98.00
2893;DHT22;1456;51.840;12.184;2023-04-24T08:46:15;16.70;98.50
2893;DHT22;1456;51.840;12.184;2023-04-24T08:48:42;16.40;99.10
2893;DHT22;1456;51.840;12.184;2023-04-24T08:51:08;16.80;99.90
2893;DHT22;1456;51.840;12.184;2023-04-24T08:53:35;17.20;99.40
2893;DHT22;1456;51.840;12.184;2023-04-24T08:56:07;17.60;99.70
2893;DHT22;1456;51.840;12.184;2023-04-24T08:58:33;17.80;97.50
2893;DHT22;1456;51.840;12.184;2023-04-24T09:00:59;17.10;96.30
2893;DHT22;1456;51.840;12.184;2023-04-24T09:03:30;16.70;96.50
2893;DHT22;1456;51.840;12.184;2023-04-24T09:05:57;16.70;98.10
2893;DHT22;1456;51.840;12.184;2023-04-24T09:08:25;16.90;97.80
2893;DHT22;1456;51.840;12.184;2023-04-24T09:10:51;17.20;97.50
2893;DHT22;1456;51.840;12.184;2023-04-24T09:13:19;17.10;96.40
2893;DHT22;1456;51.840;12.184;2023-04-24T09:15:47;17.00;97.00
2893;DHT22;1456;51.840;12.184;2023-04-24T09:18:13;16.90;96.60
2893;DHT22;1456;51.840;12.184;2023-04-24T09:21:02;17.00;96.60
2893;DHT22;1456;51.840;12.184;2023-04-24T09:23:30;17.20;97.00
2893;DHT22;1456;51.840;12.184;2023-04-24T09:25:59;17.30;96.60
2893;DHT22;1456;51.840;12.184;2023-04-24T09:33:33;17.60;95.10
2893;DHT22;1456;51.840;12.184;2023-04-24T09:35:59;18.30;96.10
2893;DHT22;1456;51.840;12.184;2023-04-24T09:38:34;18.60;93.60
2893;DHT22;1456;51.840;12.184;2023-04-24T09:41:02;18.20;92.60
2893;DHT22;1456;51.840;12.184;2023-04-24T09:43:32;17.70;92.90
2893;DHT22;1456;51.840;12.184;2023-04-24T09:45:59;17.30;93.30
2893;DHT22;1456;51.840;12.184;2023-04-24T09:48:37;17.00;93.60
2893;DHT22;1456;51.840;12.184;2023-04-24T09:51:04;16.80;93.70
2893;DHT22;1456;51.840;12.184;2023-04-24T09:53:32;17.20;93.90
2893;DHT22;1456;51.840;12.184;2023-04-24T09:56:08;17.70;95.10
2893;DHT22;1456;51.840;12.184;2023-04-24T09:58:35;17.80;92.60
2893;DHT22;1456;51.840;12.184;2023-04-24T10:01:02;17.90;94.10
2893;DHT22;1456;51.840;12.184;2023-04-24T10:03:33;18.20;92.10
2893;DHT22;1456;51.840;12.184;2023-04-24T10:06:03;18.40;92.40
2893;DHT22;1456;51.840;12.184;2023-04-24T10:08:42;17.50;90.60
2893;DHT22;1456;51.840;12.184;2023-04-24T10:11:08;17.10;92.70
2893;DHT22;1456;51.840;12.184;2023-04-24T10:13:37;17.20;93.20
2893;DHT22;1456;51.840;12.184;2023-04-24T10:16:03;18.10;92.30
2893;DHT22;1456;51.840;12.184;2023-04-24T10:18:29;18.50;91.90
2893;DHT22;1456;51.840;12.184;2023-04-24T10:20:56;18.60;91.10
2893;DHT22;1456;51.840;12.184;2023-04-24T10:23:24;18.80;91.70
2893;DHT22;1456;51.840;12.184;2023-04-24T10:25:50;19.50;90.20
2893;DHT22;1456;51.840;12.184;2023-04-24T10:28:18;19.00;89.30
2893;DHT22;1456;51.840;12.184;2023-04-24T10:30:45;18.90;90.30
2893;DHT22;1456;51.840;12.184;2023-04-24T10:33:11;19.20;89.20
2893;DHT22;1456;51.840;12.184;2023-04-24T10:35:42;19.20;88.00
2893;DHT22;1456;51.840;12.184;2023-04-24T10:38:14;18.90;86.30
2893;DHT22;1456;51.840;12.184;2023-04-24T10:40:42;19.00;88.40
2893;DHT22;1456;51.840;12.184;2023-04-24T10:43:09;18.10;86.50
2893;DHT22;1456;51.840;12.184;2023-04-24T10:45:37;17.40;87.10
2893;DHT22;1456;51.840;12.184;2023-04-24T10:48:09;18.00;90.30
2893;DHT22;1456;51.840;12.184;2023-04-24T10:50:53;18.50;86.40
2893;DHT22;1456;51.840;12.184;2023-04-24T10:53:30;18.50;86.20
2893;DHT22;1456;51.840;12.184;2023-04-24T10:56:04;18.50;87.40
2893;DHT22;1456;51.840;12.184;2023-04-24T10:58:43;18.70;89.60
2893;DHT22;1456;51.840;12.184;2023-04-24T11:01:26;19.70;89.90
2893;DHT22;1456;51.840;12.184;2023-04-24T11:03:58;20.20;82.20
2893;DHT22;1456;51.840;12.184;2023-04-24T11:06:35;20.90;85.80
2893;DHT22;1456;51.840;12.184;2023-04-24T11:09:07;22.40;83.20
2893;DHT22;1456;51.840;12.184;2023-04-24T11:11:36;22.40;76.20
2893;DHT22;1456;51.840;12.184;2023-04-24T11:14:06;22.40;78.60
2893;DHT22;1456;51.840;12.184;2023-04-24T11:16:52;23.00;75.50
2893;DHT22;1456;51.840;12.184;2023-04-24T11:19:21;21.70;72.90
2893;DHT22;1456;51.840;12.184;2023-04-24T11:21:54;21.60;78.70
2893;DHT22;1456;51.840;12.184;2023-04-24T11:29:58;21.70;71.60
2893;DHT22;1456;51.840;12.184;2023-04-24T11:32:27;20.50;73.40
2893;DHT22;1456;51.840;12.184;2023-04-24T11:34:55;19.00;74.10
2893;DHT22;1456;51.840;12.184;2023-04-24T11:37:24;18.50;75.50
2893;DHT22;1456;51.840;12.184;2023-04-24T11:39:54;18.60;79.20
2893;DHT22;1456;51.840;12.184;2023-04-24T11:42:22;19.50;77.30
2893;DHT22;1456;51.840;12.184;2023-04-24T11:44:50;20.00;75.50
2893;DHT22;1456;51.840;12.184;2023-04-24T11:47:18;20.70;75.70
2893;DHT22;1456;51.840;12.184;2023-04-24T11:49:43;20.10;71.90
2893;DHT22;1456;51.840;12.184;2023-04-24T11:52:10;20.30;74.50
2893;DHT22;1456;51.840;12.184;2023-04-24T11:54:38;20.40;70.70
2893;DHT22;1456;51.840;12.184;2023-04-24T11:57:11;20.90;68.70
2893;DHT22;1456;51.840;12.184;2023-04-24T11:59:39;20.00;70.50
2893;DHT22;1456;51.840;12.184;2023-04-24T12:02:05;19.70;70.50
2893;DHT22;1456;51.840;12.184;2023-04-24T12:04:41;20.60;69.60
2893;DHT22;1456;51.840;12.184;2023-04-24T12:07:07;21.40;71.70
2893;DHT22;1456;51.840;12.184;2023-04-24T12:09:46;22.00;69.30
2893;DHT22;1456;51.840;12.184;2023-04-24T12:12:16;21.40;69.10
2893;DHT22;1456;51.840;12.184;2023-04-24T12:15:08;22.20;67.20
2893;DHT22;1456;51.840;12.184;2023-04-24T12:17:35;22.00;67.40
2893;DHT22;1456;51.840;12.184;2023-04-24T12:20:07;21.20;68.30
2893;DHT22;1456;51.840;12.184;2023-04-24T12:22:53;21.20;65.50
2893;DHT22;1456;51.840;12.184;2023-04-24T12:25:24;20.80;66.40
2893;DHT22;1456;51.840;12.184;2023-04-24T12:30:32;21.80;66.50
2893;DHT22;1456;51.840;12.184;2023-04-24T12:33:00;21.00;64.60
2893;DHT22;1456;51.840;12.184;2023-04-24T12:35:31;19.60;67.40
2893;DHT22;1456;51.840;12.184;2023-04-24T12:38:15;18.60;69.40
2893;DHT22;1456;51.840;12.184;2023-04-24T12:40:42;18.60;70.60
2893;DHT22;1456;51.840;12.184;2023-04-24T12:43:18;18.20;69.10
2893;DHT22;1456;51.840;12.184;2023-04-24T12:45:45;17.40;70.20
2893;DHT22;1456;51.840;12.184;2023-04-24T12:48:12;17.20;71.60
2893;DHT22;1456;51.840;12.184;2023-04-24T12:50:39;17.90;73.90
2893;DHT22;1456;51.840;12.184;2023-04-24T12:53:07;18.10;70.40
2893;DHT22;1456;51.840;12.184;2023-04-24T12:55:36;17.50;68.60
2893;DHT22;1456;51.840;12.184;2023-04-24T12:58:02;17.00;68.70
2893;DHT22;1456;51.840;12.184;2023-04-24T13:00:28;16.80;71.50
2893;DHT22;1456;51.840;12.184;2023-04-24T13:02:55;17.00;70.20
2893;DHT22;1456;51.840;12.184;2023-04-24T13:05:21;17.40;71.60
2893;DHT22;1456;51.840;12.184;2023-04-24T13:07:48;17.30;68.80
2893;DHT22;1456;51.840;12.184;2023-04-24T13:10:14;17.90;70.70
2893;DHT22;1456;51.840;12.184;2023-04-24T13:12:40;19.20;72.20
2893;DHT22;1456;51.840;12.184;2023-04-24T13:15:06;21.20;70.60
2893;DHT22;1456;51.840;12.184;2023-04-24T13:17:33;22.20;69.30
2893;DHT22;1456;51.840;12.184;2023-04-24T13:20:06;22.00;63.40
2893;DHT22;1456;51.840;12.184;2023-04-24T13:22:32;22.10;63.70
2893;DHT22;1456;51.840;12.184;2023-04-24T13:24:58;22.30;62.60
2893;DHT22;1456;51.840;12.184;2023-04-24T13:27:23;21.40;63.50
2893;DHT22;1456;51.840;12.184;2023-04-24T13:29:49;20.50;68.80
2893;DHT22;1456;51.840;12.184;2023-04-24T13:32:17;20.00;69.40
2893;DHT22;1456;51.840;12.184;2023-04-24T13:34:42;18.50;68.00
2893;DHT22;1456;51.840;12.184;2023-04-24T13:37:08;18.00;69.50
2893;DHT22;1456;51.840;12.184;2023-04-24T13:39:34;17.90;71.40
2893;DHT22;1456;51.840;12.184;2023-04-24T13:42:00;17.80;72.20
2893;DHT22;1456;51.840;12.184;2023-04-24T13:44:26;17.10;70.80
2893;DHT22;1456;51.840;12.184;2023-04-24T13:46:53;16.60;71.90
2893;DHT22;1456;51.840;12.184;2023-04-24T13:49:21;16.60;72.50
2893;DHT22;1456;51.840;12.184;2023-04-24T13:51:49;16.20;72.40
2893;DHT22;1456;51.840;12.184;2023-04-24T13:54:14;16.10;73.70
2893;DHT22;1456;51.840;12.184;2023-04-24T13:56:40;16.20;74.60
2893;DHT22;1456;51.840;12.184;2023-04-24T13:59:08;16.40;75.30
2893;DHT22;1456;51.840;12.184;2023-04-24T14:01:35;16.40;73.50
2893;DHT22;1456;51.840;12.184;2023-04-24T14:04:00;16.60;75.90
2893;DHT22;1456;51.840;12.184;2023-04-24T14:06:27;16.90;74.40
2893;DHT22;1456;51.840;12.184;2023-04-24T14:08:53;16.80;73.60
2893;DHT22;1456;51.840;12.184;2023-04-24T14:11:19;16.40;74.00
2893;DHT22;1456;51.840;12.184;2023-04-24T14:13:46;16.20;75.90
2893;DHT22;1456;51.840;12.184;2023-04-24T14:16:13;16.00;75.70
2893;DHT22;1456;51.840;12.184;2023-04-24T14:18:40;15.80;76.80
2893;DHT22;1456;51.840;12.184;2023-04-24T14:21:06;15.90;78.90
2893;DHT22;1456;51.840;12.184;2023-04-24T14:23:33;15.80;78.90
2893;DHT22;1456;51.840;12.184;2023-04-24T14:25:59;16.70;79.60
2893;DHT22;1456;51.840;12.184;2023-04-24T14:28:25;18.30;78.80
2893;DHT22;1456;51.840;12.184;2023-04-24T14:30:53;19.80;73.70
2893;DHT22;1456;51.840;12.184;2023-04-24T14:33:19;20.10;70.70
2893;DHT22;1456;51.840;12.184;2023-04-24T14:35:46;19.20;69.60
2893;DHT22;1456;51.840;12.184;2023-04-24T14:38:12;19.50;72.80
2893;DHT22;1456;51.840;12.184;2023-04-24T14:40:38;20.80;73.10
2893;DHT22;1456;51.840;12.184;2023-04-24T14:43:04;20.50;72.40
2893;DHT22;1456;51.840;12.184;2023-04-24T14:45:30;21.00;73.70
2893;DHT22;1456;51.840;12.184;2023-04-24T14:47:56;20.30;73.30
2893;DHT22;1456;51.840;12.184;2023-04-24T14:50:23;20.10;71.30
2893;DHT22;1456;51.840;12.184;2023-04-24T14:52:49;20.90;73.10
2893;DHT22;1456;51.840;12.184;2023-04-24T14:55:15;21.30;69.80
2893;DHT22;1456;51.840;12.184;2023-04-24T14:57:40;20.50;73.90
2893;DHT22;1456;51.840;12.184;2023-04-24T15:00:07;21.00;73.90
2893;DHT22;1456;51.840;12.184;2023-04-24T15:02:35;21.30;70.60
2893;DHT22;1456;51.840;12.184;2023-04-24T15:05:05;20.90;73.30
2893;DHT22;1456;51.840;12.184;2023-04-24T15:07:32;20.00;72.80
2893;DHT22;1456;51.840;12.184;2023-04-24T15:09:58;19.80;75.60
2893;DHT22;1456;51.840;12.184;2023-04-24T15:12:24;19.60;77.20
2893;DHT22;1456;51.840;12.184;2023-04-24T15:14:52;17.90;77.40
2893;DHT22;1456;51.840;12.184;2023-04-24T15:17:17;17.50;78.80
2893;DHT22;1456;51.840;12.184;2023-04-24T15:19:43;16.90;81.30
2893;DHT22;1456;51.840;12.184;2023-04-24T15:22:10;17.00;80.60
2893;DHT22;1456;51.840;12.184;2023-04-24T15:24:35;17.20;80.50
2893;DHT22;1456;51.840;12.184;2023-04-24T15:27:02;16.30;79.30
2893;DHT22;1456;51.840;12.184;2023-04-24T15:29:29;15.80;81.80
2893;DHT22;1456;51.840;12.184;2023-04-24T15:31:55;15.60;84.00
2893;DHT22;1456;51.840;12.184;2023-04-24T15:34:20;14.90;85.30
2893;DHT22;1456;51.840;12.184;2023-04-24T15:36:46;14.80;86.50
2893;DHT22;1456;51.840;12.184;2023-04-24T15:39:12;14.80;88.60
2893;DHT22;1456;51.840;12.184;2023-04-24T15:41:39;15.00;89.60
2893;DHT22;1456;51.840;12.184;2023-04-24T15:44:04;15.20;88.80
2893;DHT22;1456;51.840;12.184;2023-04-24T15:46:30;15.40;88.60
2893;DHT22;1456;51.840;12.184;2023-04-24T15:48:57;15.70;89.10
2893;DHT22;1456;51.840;12.184;2023-04-24T15:51:25;16.20;83.60
2893;DHT22;1456;51.840;12.184;2023-04-24T15:53:51;16.20;84.00
2893;DHT22;1456;51.840;12.184;2023-04-24T15:56:17;15.90;83.50
2893;DHT22;1456;51.840;12.184;2023-04-24T15:58:43;15.60;82.90
2893;DHT22;1456;51.840;12.184;2023-04-24T16:01:09;15.40;85.50